Bookmark and Share
Track history (hours):
 

Forester

Last reported at 2014-Apr-17 07:21 UTC. Time now 2014-Apr-19 12:03 UTC.
Position N 49°37' W 003°60'.

Length 100 m; draft 6.8 m.

Type: Ship. MMSI: 211233870.

NotesDate/timePositionNaut miles runAvg speedWind from/ knotsBaromVisibWave heightAir tempDewpointWater temp
2014-Apr-17 07:21N 49°37' W 003°60'4411.1
2014-Apr-17 03:22N 49°59' W 003°01'1114.0
2014-Apr-17 02:34N 50°03' W 002°44'1514.5
2014-Apr-17 01:33N 50°08' W 002°23'1413.6
2014-Apr-17 00:33N 50°13' W 002°04'1211.9
2014-Apr-16 23:33N 50°18' W 001°46'1010.2
2014-Apr-16 22:33N 50°21' W 001°31'9 9.0
2014-Apr-16 21:33N 50°25' W 001°19'16 7.9
2014-Apr-16 19:33N 50°30' W 000°55'10 9.5
2014-Apr-16 18:33N 50°30' W 000°40'1212.2
2014-Apr-16 17:33N 50°31' W 000°21'1313.1
2014-Apr-16 16:33N 50°33' W 000°00'1313.3
2014-Apr-16 15:33N 50°36' E 000°20'1312.6
2014-Apr-16 14:33N 50°41' E 000°38'1211.5
2014-Apr-16 13:33N 50°47' E 000°53'1010.2
2014-Apr-16 12:32N 50°54' E 001°07'9 9.6
2014-Apr-16 11:33N 50°60' E 001°18'1010.4
2014-Apr-16 10:33N 51°06' E 001°31'1312.6
2014-Apr-16 09:34N 51°15' E 001°46'1413.9
2014-Apr-16 08:34N 51°27' E 001°57'1413.5
2014-Apr-16 07:33N 51°37' E 002°11'1312.6
2014-Apr-16 06:34N 51°47' E 002°24'3210.7
2014-Apr-16 03:32N 52°12' E 002°58'11 9.7
2014-Apr-16 02:24N 52°20' E 003°08'1110.1
2014-Apr-16 01:20N 52°29' E 003°19'3611.9
2014-Apr-15 22:18N 52°57' E 003°56'4211.4
2014-Apr-15 18:33N 53°29' E 004°44'1010.1
2014-Apr-15 17:33N 53°33' E 004°60'1010.3
2014-Apr-15 16:33N 53°36' E 005°16'1211.5
2014-Apr-15 15:32N 53°40' E 005°35'1212.2
2014-Apr-15 14:33N 53°43' E 005°54'45 9.1
2014-Apr-15 09:34N 53°55' E 007°08'10 9.5
2014-Apr-15 08:33N 53°58' E 007°24'9 8.7
2014-Apr-15 07:34N 53°59' E 007°39'7 7.1
2014-Apr-15 06:34N 53°53' E 007°46'7 6.7
2014-Apr-15 05:34N 53°52' E 007°57'19 9.5
2014-Apr-15 03:34N 53°40' E 008°23'1111.1
2014-Apr-15 02:34N 53°30' E 008°31'1010.2
2014-Apr-15 01:34N 53°20' E 008°30'0 0.0
2014-Apr-15 00:34N 53°20' E 008°30'0 0.0
2014-Apr-14 23:34N 53°20' E 008°30'0 0.0
2014-Apr-14 22:30N 53°20' E 008°30'0 0.0
2014-Apr-14 21:33N 53°20' E 008°30'0 0.0
2014-Apr-14 20:33N 53°20' E 008°30'0 0.0
2014-Apr-14 18:30N 53°20' E 008°30'0 0.0
2014-Apr-14 15:32N 53°20' E 008°30'0 0.0
2014-Apr-14 14:32N 53°20' E 008°30'0 0.0
2014-Apr-14 11:32N 53°20' E 008°30'0 0.0
2014-Apr-14 10:32N 53°20' E 008°30'0 0.0
2014-Apr-14 09:32N 53°20' E 008°30'0 0.0
2014-Apr-14 08:32N 53°20' E 008°30'0 0.0
2014-Apr-14 07:32N 53°20' E 008°30'0 0.0
2014-Apr-14 06:32N 53°20' E 008°30'0 0.0
2014-Apr-14 05:32N 53°20' E 008°30'0 0.0
2014-Apr-13 22:32N 53°20' E 008°30'0 0.0
2014-Apr-13 21:32N 53°20' E 008°30'0 0.0
2014-Apr-13 20:26N 53°20' E 008°30'0 0.0
2014-Apr-13 19:32N 53°20' E 008°30'0 0.0
2014-Apr-13 18:28N 53°20' E 008°30'5 5.8
2014-Apr-13 17:33N 53°25' E 008°30'8 8.3
2014-Apr-13 16:33N 53°34' E 008°33'10 9.6
2014-Apr-13 15:33N 53°41' E 008°22'10 9.6
2014-Apr-13 14:34N 53°47' E 008°09'10 9.4
2014-Apr-13 13:33N 53°55' E 008°00'1010.2
2014-Apr-13 12:34N 53°60' E 008°15'1211.9
2014-Apr-13 11:34N 53°58' E 008°36'10 9.5
2014-Apr-13 10:33N 53°51' E 008°46'9 8.7
2014-Apr-13 09:33N 53°52' E 009°01'5 5.1
2014-Apr-13 08:34N 53°54' E 009°09'2 1.5
2014-Apr-13 07:33N 53°55' E 009°11'0 0.0
2014-Apr-13 06:33N 53°55' E 009°11'0 0.0
2014-Apr-13 05:32N 53°55' E 009°11'0 0.0
2014-Apr-13 04:32N 53°55' E 009°11'3 2.9
2014-Apr-13 03:34N 53°57' E 009°14'6 6.2
2014-Apr-13 02:34N 54°02' E 009°18'3 3.0
2014-Apr-13 01:33N 54°05' E 009°19'8 7.4
2014-Apr-13 00:30N 54°11' E 009°29'7 7.4
2014-Apr-12 23:33N 54°16' E 009°37'53 7.5
2014-Apr-12 16:33N 54°36' E 011°01'1110.7
2014-Apr-12 15:33N 54°32' E 011°18'1111.2
2014-Apr-12 14:33N 54°21' E 011°25'1211.6
2014-Apr-12 13:33N 54°10' E 011°26'9 9.4
2014-Apr-12 12:33N 54°01' E 011°20'8 8.0
2014-Apr-12 11:33N 53°54' E 011°27'0 0.0
2014-Apr-12 10:33N 53°54' E 011°27'0 0.0
2014-Apr-12 09:30N 53°54' E 011°27'0 0.0
2014-Apr-12 08:33N 53°54' E 011°27'0 0.0
2014-Apr-12 07:33N 53°54' E 011°27'0 0.0
2014-Apr-12 06:33N 53°54' E 011°27'0 0.0
2014-Apr-12 05:30N 53°54' E 011°27'0 0.0
2014-Apr-12 04:33N 53°54' E 011°27'0 0.0
2014-Apr-12 03:30N 53°54' E 011°27'0 0.0
2014-Apr-12 02:32N 53°54' E 011°27'0 0.0
2014-Apr-12 01:32N 53°54' E 011°27'0 0.0
2014-Apr-12 00:32N 53°54' E 011°27'0 0.0
2014-Apr-11 23:32N 53°54' E 011°27'0 0.0
2014-Apr-11 22:32N 53°54' E 011°27'0 0.0
2014-Apr-11 21:32N 53°54' E 011°27'0 0.0
2014-Apr-11 20:32N 53°54' E 011°27'0 0.0
2014-Apr-11 19:32N 53°54' E 011°27'0 0.0
2014-Apr-11 18:32N 53°54' E 011°27'0 0.0
2014-Apr-11 17:32N 53°54' E 011°27'0 0.0
2014-Apr-11 16:32N 53°54' E 011°27'0 0.0
2014-Apr-11 15:32N 53°54' E 011°27'0 0.0
2014-Apr-11 14:32N 53°54' E 011°27'0 0.0
2014-Apr-11 13:32N 53°54' E 011°27'0 0.0
2014-Apr-11 12:32N 53°54' E 011°27'0 0.0
2014-Apr-11 11:32N 53°54' E 011°27'0 0.0
2014-Apr-11 10:32N 53°54' E 011°27'0 0.0
2014-Apr-11 09:32N 53°54' E 011°27'0 0.0
2014-Apr-11 08:32N 53°54' E 011°27'0 0.0
2014-Apr-11 07:32N 53°54' E 011°27'0 0.0
2014-Apr-11 06:32N 53°54' E 011°27'0 0.0
2014-Apr-11 05:32N 53°54' E 011°27'0 0.0
2014-Apr-11 04:32N 53°54' E 011°27'1 0.5
2014-Apr-11 03:33N 53°54' E 011°27'7 7.5
2014-Apr-11 02:33N 54°01' E 011°22'9 9.1
2014-Apr-11 01:33N 54°10' E 011°26'1110.6
2014-Apr-11 00:33N 54°21' E 011°25'1010.4
2014-Apr-10 23:33N 54°31' E 011°20'10 9.9
2014-Apr-10 22:32N 54°35' E 011°05'12610.5
2014-Apr-10 10:31N 56°39' E 011°45'1010.4
2014-Apr-10 09:32N 56°49' E 011°50'1111.1
2014-Apr-10 08:30N 56°60' E 011°43'1111.1
2014-Apr-10 07:33N 57°10' E 011°36'1111.5
2014-Apr-10 06:33N 57°20' E 011°29'1211.5
2014-Apr-10 05:33N 57°31' E 011°20'1111.4
2014-Apr-10 04:33N 57°41' E 011°09'1111.3
2014-Apr-10 03:33N 57°50' E 010°59'1211.6
2014-Apr-10 02:33N 58°01' E 010°48'101 2.0
2014-Apr-07 23:18N 57°00' E 008°17'8111.5
2014-Apr-07 16:15N 55°49' E 007°06'811.4
2014-Apr-07 15:33N 55°42' E 006°59'1211.6
2014-Apr-07 14:33N 55°32' E 006°49'  

Dump ship's entire track history

sailing weather and tide predictions

Forester — DIUT — position and weather